sensor_id;sensor_type;location;lat;lon;timestamp;temperature;humidity
45643;DHT22;31358;46.008;11.144;2023-10-13T00:01:56;18.40;99.90
45643;DHT22;31358;46.008;11.144;2023-10-13T00:04:25;18.40;99.90
45643;DHT22;31358;46.008;11.144;2023-10-13T00:06:52;18.20;99.90
45643;DHT22;31358;46.008;11.144;2023-10-13T00:09:25;18.00;99.90
45643;DHT22;31358;46.008;11.144;2023-10-13T00:11:58;18.00;99.90
45643;DHT22;31358;46.008;11.144;2023-10-13T00:14:24;17.90;99.90
45643;DHT22;31358;46.008;11.144;2023-10-13T00:16:59;17.80;99.90
45643;DHT22;31358;46.008;11.144;2023-10-13T00:19:38;17.80;99.90
45643;DHT22;31358;46.008;11.144;2023-10-13T00:22:10;17.80;99.90
45643;DHT22;31358;46.008;11.144;2023-10-13T00:24:39;17.70;99.90
45643;DHT22;31358;46.008;11.144;2023-10-13T00:27:12;17.80;99.90
45643;DHT22;31358;46.008;11.144;2023-10-13T00:29:53;17.70;99.90
45643;DHT22;31358;46.008;11.144;2023-10-13T00:32:39;17.70;99.90
45643;DHT22;31358;46.008;11.144;2023-10-13T00:35:09;17.70;99.90
45643;DHT22;31358;46.008;11.144;2023-10-13T00:37:37;17.50;99.90
45643;DHT22;31358;46.008;11.144;2023-10-13T00:40:11;17.50;99.90
45643;DHT22;31358;46.008;11.144;2023-10-13T00:42:55;17.50;99.90
45643;DHT22;31358;46.008;11.144;2023-10-13T00:45:26;17.60;99.90
45643;DHT22;31358;46.008;11.144;2023-10-13T00:47:54;17.60;99.90
45643;DHT22;31358;46.008;11.144;2023-10-13T00:50:23;17.60;99.90
45643;DHT22;31358;46.008;11.144;2023-10-13T00:52:49;17.50;99.90
45643;DHT22;31358;46.008;11.144;2023-10-13T00:55:21;17.40;99.90
45643;DHT22;31358;46.008;11.144;2023-10-13T00:57:55;17.40;99.90
45643;DHT22;31358;46.008;11.144;2023-10-13T01:00:25;17.30;99.90
45643;DHT22;31358;46.008;11.144;2023-10-13T01:02:54;17.50;99.90
45643;DHT22;31358;46.008;11.144;2023-10-13T01:05:25;17.50;99.90
45643;DHT22;31358;46.008;11.144;2023-10-13T01:07:51;17.40;99.90
45643;DHT22;31358;46.008;11.144;2023-10-13T01:10:21;17.40;99.90
45643;DHT22;31358;46.008;11.144;2023-10-13T01:12:52;17.40;99.90
45643;DHT22;31358;46.008;11.144;2023-10-13T01:15:18;17.40;99.90
45643;DHT22;31358;46.008;11.144;2023-10-13T01:17:47;17.30;99.90
45643;DHT22;31358;46.008;11.144;2023-10-13T01:20:14;17.30;99.90
45643;DHT22;31358;46.008;11.144;2023-10-13T01:22:50;17.30;99.90
45643;DHT22;31358;46.008;11.144;2023-10-13T01:25:24;17.50;99.90
45643;DHT22;31358;46.008;11.144;2023-10-13T01:27:53;17.50;99.90
45643;DHT22;31358;46.008;11.144;2023-10-13T01:30:19;17.50;99.90
45643;DHT22;31358;46.008;11.144;2023-10-13T01:32:51;17.50;99.90
45643;DHT22;31358;46.008;11.144;2023-10-13T01:35:19;17.50;99.90
45643;DHT22;31358;46.008;11.144;2023-10-13T01:37:50;17.50;99.90
45643;DHT22;31358;46.008;11.144;2023-10-13T01:40:16;17.30;99.90
45643;DHT22;31358;46.008;11.144;2023-10-13T01:42:47;17.50;99.90
45643;DHT22;31358;46.008;11.144;2023-10-13T01:45:21;17.60;99.90
45643;DHT22;31358;46.008;11.144;2023-10-13T01:47:46;17.60;99.90
45643;DHT22;31358;46.008;11.144;2023-10-13T01:50:16;17.60;99.90
45643;DHT22;31358;46.008;11.144;2023-10-13T01:52:53;17.60;99.90
45643;DHT22;31358;46.008;11.144;2023-10-13T01:55:26;17.60;99.90
45643;DHT22;31358;46.008;11.144;2023-10-13T01:57:51;17.60;99.90
45643;DHT22;31358;46.008;11.144;2023-10-13T02:00:20;17.60;99.90
45643;DHT22;31358;46.008;11.144;2023-10-13T02:02:46;17.60;99.90
45643;DHT22;31358;46.008;11.144;2023-10-13T02:05:15;17.50;99.90
45643;DHT22;31358;46.008;11.144;2023-10-13T02:07:42;17.50;99.90
45643;DHT22;31358;46.008;11.144;2023-10-13T02:10:11;17.60;99.90
45643;DHT22;31358;46.008;11.144;2023-10-13T02:12:37;17.60;99.90
45643;DHT22;31358;46.008;11.144;2023-10-13T02:15:10;17.70;99.90
45643;DHT22;31358;46.008;11.144;2023-10-13T02:17:46;17.70;99.90
45643;DHT22;31358;46.008;11.144;2023-10-13T02:20:17;17.70;99.90
45643;DHT22;31358;46.008;11.144;2023-10-13T02:22:44;17.70;99.90
45643;DHT22;31358;46.008;11.144;2023-10-13T02:25:16;17.60;99.90
45643;DHT22;31358;46.008;11.144;2023-10-13T02:28:02;17.70;99.90
45643;DHT22;31358;46.008;11.144;2023-10-13T02:30:28;17.70;99.90
45643;DHT22;31358;46.008;11.144;2023-10-13T02:32:55;17.70;99.90
45643;DHT22;31358;46.008;11.144;2023-10-13T02:35:21;17.80;99.90
45643;DHT22;31358;46.008;11.144;2023-10-13T02:37:55;17.80;99.90
45643;DHT22;31358;46.008;11.144;2023-10-13T02:40:23;17.80;99.90
45643;DHT22;31358;46.008;11.144;2023-10-13T02:42:49;17.80;99.90
45643;DHT22;31358;46.008;11.144;2023-10-13T02:45:15;17.80;99.90
45643;DHT22;31358;46.008;11.144;2023-10-13T02:47:41;17.80;99.90
45643;DHT22;31358;46.008;11.144;2023-10-13T02:50:09;17.90;99.90
45643;DHT22;31358;46.008;11.144;2023-10-13T02:52:38;17.90;99.90
45643;DHT22;31358;46.008;11.144;2023-10-13T02:55:07;17.90;99.90
45643;DHT22;31358;46.008;11.144;2023-10-13T02:57:40;17.90;99.90
45643;DHT22;31358;46.008;11.144;2023-10-13T03:00:06;17.80;99.90
45643;DHT22;31358;46.008;11.144;2023-10-13T03:02:40;17.80;99.90
45643;DHT22;31358;46.008;11.144;2023-10-13T03:05:10;17.70;99.90
45643;DHT22;31358;46.008;11.144;2023-10-13T03:07:42;17.50;99.90
45643;DHT22;31358;46.008;11.144;2023-10-13T03:10:10;17.50;99.90
45643;DHT22;31358;46.008;11.144;2023-10-13T03:12:37;17.50;99.90
45643;DHT22;31358;46.008;11.144;2023-10-13T03:15:04;17.50;99.90
45643;DHT22;31358;46.008;11.144;2023-10-13T03:17:44;17.50;99.90
45643;DHT22;31358;46.008;11.144;2023-10-13T03:20:14;17.80;99.90
45643;DHT22;31358;46.008;11.144;2023-10-13T03:22:42;17.80;99.90
45643;DHT22;31358;46.008;11.144;2023-10-13T03:25:14;17.90;99.90
45643;DHT22;31358;46.008;11.144;2023-10-13T03:28:00;17.80;99.90
45643;DHT22;31358;46.008;11.144;2023-10-13T03:30:25;17.90;99.90
45643;DHT22;31358;46.008;11.144;2023-10-13T03:33:02;17.90;99.90
45643;DHT22;31358;46.008;11.144;2023-10-13T03:35:36;17.80;99.90
45643;DHT22;31358;46.008;11.144;2023-10-13T03:38:10;17.80;99.90
45643;DHT22;31358;46.008;11.144;2023-10-13T03:40:46;17.80;99.90
45643;DHT22;31358;46.008;11.144;2023-10-13T03:43:21;17.80;99.90
45643;DHT22;31358;46.008;11.144;2023-10-13T03:45:49;17.80;99.90
45643;DHT22;31358;46.008;11.144;2023-10-13T03:48:19;17.80;99.90
45643;DHT22;31358;46.008;11.144;2023-10-13T03:50:54;17.80;99.90
45643;DHT22;31358;46.008;11.144;2023-10-13T03:53:27;17.70;99.90
45643;DHT22;31358;46.008;11.144;2023-10-13T03:56:00;17.70;99.90
45643;DHT22;31358;46.008;11.144;2023-10-13T03:58:38;17.70;99.90
45643;DHT22;31358;46.008;11.144;2023-10-13T04:01:13;17.70;99.90
45643;DHT22;31358;46.008;11.144;2023-10-13T04:03:43;17.80;99.90
45643;DHT22;31358;46.008;11.144;2023-10-13T04:06:25;17.70;99.90
45643;DHT22;31358;46.008;11.144;2023-10-13T04:09:16;17.70;99.90
45643;DHT22;31358;46.008;11.144;2023-10-13T04:11:54;17.70;99.90
45643;DHT22;31358;46.008;11.144;2023-10-13T04:17:13;17.70;99.90
45643;DHT22;31358;46.008;11.144;2023-10-13T04:19:48;17.70;99.90
45643;DHT22;31358;46.008;11.144;2023-10-13T04:25:17;17.60;99.90
45643;DHT22;31358;46.008;11.144;2023-10-13T04:28:02;17.60;99.90
45643;DHT22;31358;46.008;11.144;2023-10-13T04:30:50;17.60;99.90
45643;DHT22;31358;46.008;11.144;2023-10-13T04:33:22;17.60;99.90
45643;DHT22;31358;46.008;11.144;2023-10-13T04:36:07;17.50;99.90
45643;DHT22;31358;46.008;11.144;2023-10-13T04:38:49;17.50;99.90
45643;DHT22;31358;46.008;11.144;2023-10-13T04:41:28;17.60;99.90
45643;DHT22;31358;46.008;11.144;2023-10-13T04:44:02;17.60;99.90
45643;DHT22;31358;46.008;11.144;2023-10-13T04:46:49;17.50;99.90
45643;DHT22;31358;46.008;11.144;2023-10-13T04:49:15;17.50;99.90
45643;DHT22;31358;46.008;11.144;2023-10-13T04:52:01;17.40;99.90
45643;DHT22;31358;46.008;11.144;2023-10-13T04:54:36;17.30;99.90
45643;DHT22;31358;46.008;11.144;2023-10-13T04:57:14;17.30;99.90
45643;DHT22;31358;46.008;11.144;2023-10-13T05:00:00;17.30;99.90
45643;DHT22;31358;46.008;11.144;2023-10-13T05:02:42;17.20;99.90
45643;DHT22;31358;46.008;11.144;2023-10-13T05:05:20;17.30;99.90
45643;DHT22;31358;46.008;11.144;2023-10-13T05:08:04;17.30;99.90
45643;DHT22;31358;46.008;11.144;2023-10-13T05:10:49;17.20;99.90
45643;DHT22;31358;46.008;11.144;2023-10-13T05:13:33;17.20;99.90
45643;DHT22;31358;46.008;11.144;2023-10-13T05:16:17;17.30;99.90
45643;DHT22;31358;46.008;11.144;2023-10-13T05:19:06;17.20;99.90
45643;DHT22;31358;46.008;11.144;2023-10-13T05:21:50;17.20;99.90
45643;DHT22;31358;46.008;11.144;2023-10-13T05:24:34;17.20;99.90
45643;DHT22;31358;46.008;11.144;2023-10-13T05:27:18;17.10;99.90
45643;DHT22;31358;46.008;11.144;2023-10-13T05:30:02;17.20;99.90
45643;DHT22;31358;46.008;11.144;2023-10-13T05:32:46;17.10;99.90
45643;DHT22;31358;46.008;11.144;2023-10-13T05:35:31;17.10;99.90
45643;DHT22;31358;46.008;11.144;2023-10-13T05:38:15;17.00;99.90
45643;DHT22;31358;46.008;11.144;2023-10-13T05:41:04;17.00;99.90
45643;DHT22;31358;46.008;11.144;2023-10-13T05:43:49;17.10;99.90
45643;DHT22;31358;46.008;11.144;2023-10-13T05:46:33;17.00;99.90
45643;DHT22;31358;46.008;11.144;2023-10-13T05:49:03;17.00;99.90
45643;DHT22;31358;46.008;11.144;2023-10-13T05:51:38;17.10;99.90
45643;DHT22;31358;46.008;11.144;2023-10-13T05:54:07;17.10;99.90
45643;DHT22;31358;46.008;11.144;2023-10-13T05:56:42;17.20;99.90
45643;DHT22;31358;46.008;11.144;2023-10-13T05:59:27;17.20;99.90
45643;DHT22;31358;46.008;11.144;2023-10-13T06:02:12;17.20;99.90
45643;DHT22;31358;46.008;11.144;2023-10-13T06:04:57;17.20;99.90
45643;DHT22;31358;46.008;11.144;2023-10-13T06:07:41;17.20;99.90
45643;DHT22;31358;46.008;11.144;2023-10-13T06:10:25;17.40;99.90
45643;DHT22;31358;46.008;11.144;2023-10-13T06:13:09;17.40;99.90
45643;DHT22;31358;46.008;11.144;2023-10-13T06:15:53;17.40;99.90
45643;DHT22;31358;46.008;11.144;2023-10-13T06:18:37;17.40;99.90
45643;DHT22;31358;46.008;11.144;2023-10-13T06:21:22;17.40;99.90
45643;DHT22;31358;46.008;11.144;2023-10-13T06:24:06;17.40;99.90
45643;DHT22;31358;46.008;11.144;2023-10-13T06:26:51;17.40;99.90
45643;DHT22;31358;46.008;11.144;2023-10-13T06:29:35;17.50;99.90
45643;DHT22;31358;46.008;11.144;2023-10-13T06:32:00;17.40;99.90
45643;DHT22;31358;46.008;11.144;2023-10-13T06:34:27;17.50;99.90
45643;DHT22;31358;46.008;11.144;2023-10-13T06:37:16;17.50;99.90
45643;DHT22;31358;46.008;11.144;2023-10-13T06:39:49;17.50;99.90
45643;DHT22;31358;46.008;11.144;2023-10-13T06:42:15;17.40;99.90
45643;DHT22;31358;46.008;11.144;2023-10-13T06:44:42;17.40;99.90
45643;DHT22;31358;46.008;11.144;2023-10-13T06:47:12;17.50;99.90
45643;DHT22;31358;46.008;11.144;2023-10-13T06:49:41;17.50;99.90
45643;DHT22;31358;46.008;11.144;2023-10-13T06:52:09;17.50;99.90
45643;DHT22;31358;46.008;11.144;2023-10-13T06:54:39;17.40;99.90
45643;DHT22;31358;46.008;11.144;2023-10-13T06:57:06;17.50;99.90
45643;DHT22;31358;46.008;11.144;2023-10-13T06:59:33;17.50;99.90
45643;DHT22;31358;46.008;11.144;2023-10-13T07:02:02;17.60;99.90
45643;DHT22;31358;46.008;11.144;2023-10-13T07:04:32;17.70;99.90
45643;DHT22;31358;46.008;11.144;2023-10-13T07:06:58;17.70;99.90
45643;DHT22;31358;46.008;11.144;2023-10-13T07:09:26;17.70;99.90
45643;DHT22;31358;46.008;11.144;2023-10-13T07:12:05;17.70;99.90
45643;DHT22;31358;46.008;11.144;2023-10-13T07:14:49;17.70;99.90
45643;DHT22;31358;46.008;11.144;2023-10-13T07:17:18;17.80;99.90
45643;DHT22;31358;46.008;11.144;2023-10-13T07:19:58;17.70;99.90
45643;DHT22;31358;46.008;11.144;2023-10-13T07:22:40;17.80;99.90
45643;DHT22;31358;46.008;11.144;2023-10-13T07:25:11;17.80;99.90
45643;DHT22;31358;46.008;11.144;2023-10-13T07:27:49;17.90;99.90
45643;DHT22;31358;46.008;11.144;2023-10-13T07:30:14;18.00;99.90
45643;DHT22;31358;46.008;11.144;2023-10-13T07:32:45;18.00;99.90
45643;DHT22;31358;46.008;11.144;2023-10-13T07:35:15;18.00;99.90
45643;DHT22;31358;46.008;11.144;2023-10-13T07:37:43;18.00;99.90
45643;DHT22;31358;46.008;11.144;2023-10-13T07:40:10;18.10;99.90
45643;DHT22;31358;46.008;11.144;2023-10-13T07:43:05;18.10;99.90
45643;DHT22;31358;46.008;11.144;2023-10-13T07:45:37;18.20;99.90
45643;DHT22;31358;46.008;11.144;2023-10-13T07:48:06;18.30;99.90
45643;DHT22;31358;46.008;11.144;2023-10-13T07:51:07;18.20;99.90
45643;DHT22;31358;46.008;11.144;2023-10-13T07:53:42;18.20;99.90
45643;DHT22;31358;46.008;11.144;2023-10-13T07:56:14;18.10;99.90
45643;DHT22;31358;46.008;11.144;2023-10-13T07:58:44;18.30;99.90
45643;DHT22;31358;46.008;11.144;2023-10-13T08:01:21;18.40;99.90
45643;DHT22;31358;46.008;11.144;2023-10-13T08:03:47;18.30;99.90
45643;DHT22;31358;46.008;11.144;2023-10-13T08:06:17;18.20;99.90
45643;DHT22;31358;46.008;11.144;2023-10-13T08:08:43;18.20;99.90
45643;DHT22;31358;46.008;11.144;2023-10-13T08:11:11;18.20;99.90
45643;DHT22;31358;46.008;11.144;2023-10-13T08:13:41;18.20;99.90
45643;DHT22;31358;46.008;11.144;2023-10-13T08:16:14;18.20;99.90
45643;DHT22;31358;46.008;11.144;2023-10-13T08:18:49;18.20;99.90
45643;DHT22;31358;46.008;11.144;2023-10-13T08:21:19;18.20;99.90
45643;DHT22;31358;46.008;11.144;2023-10-13T08:23:57;18.20;99.90
45643;DHT22;31358;46.008;11.144;2023-10-13T08:26:27;18.20;99.90
45643;DHT22;31358;46.008;11.144;2023-10-13T08:29:03;18.30;99.90
45643;DHT22;31358;46.008;11.144;2023-10-13T08:31:48;18.30;99.90
45643;DHT22;31358;46.008;11.144;2023-10-13T08:34:30;18.30;99.90
45643;DHT22;31358;46.008;11.144;2023-10-13T08:37:07;18.30;99.90
45643;DHT22;31358;46.008;11.144;2023-10-13T08:39:58;18.40;99.90
45643;DHT22;31358;46.008;11.144;2023-10-13T08:42:35;18.30;99.90
45643;DHT22;31358;46.008;11.144;2023-10-13T08:45:16;18.20;99.90
45643;DHT22;31358;46.008;11.144;2023-10-13T08:47:51;18.20;99.90
45643;DHT22;31358;46.008;11.144;2023-10-13T08:50:50;18.20;99.90
45643;DHT22;31358;46.008;11.144;2023-10-13T08:56:10;18.40;99.90
45643;DHT22;31358;46.008;11.144;2023-10-13T08:58:41;18.50;99.90
45643;DHT22;31358;46.008;11.144;2023-10-13T09:04:15;18.70;99.90
45643;DHT22;31358;46.008;11.144;2023-10-13T09:06:54;18.60;99.90
45643;DHT22;31358;46.008;11.144;2023-10-13T09:09:29;18.70;99.90
45643;DHT22;31358;46.008;11.144;2023-10-13T09:12:16;18.60;99.90
45643;DHT22;31358;46.008;11.144;2023-10-13T09:14:53;18.70;99.90
45643;DHT22;31358;46.008;11.144;2023-10-13T09:17:50;18.80;99.90
45643;DHT22;31358;46.008;11.144;2023-10-13T09:20:15;18.80;99.90
45643;DHT22;31358;46.008;11.144;2023-10-13T09:22:48;18.80;99.90
45643;DHT22;31358;46.008;11.144;2023-10-13T09:25:36;18.80;99.90
45643;DHT22;31358;46.008;11.144;2023-10-13T09:28:37;18.90;99.90
45643;DHT22;31358;46.008;11.144;2023-10-13T09:30:56;18.80;99.90
45643;DHT22;31358;46.008;11.144;2023-10-13T09:33:26;18.90;99.90
45643;DHT22;31358;46.008;11.144;2023-10-13T09:35:59;19.00;99.90
45643;DHT22;31358;46.008;11.144;2023-10-13T09:38:28;18.90;99.90
45643;DHT22;31358;46.008;11.144;2023-10-13T09:40:54;19.10;99.90
45643;DHT22;31358;46.008;11.144;2023-10-13T09:43:26;19.20;99.90
45643;DHT22;31358;46.008;11.144;2023-10-13T09:45:59;19.20;99.90
45643;DHT22;31358;46.008;11.144;2023-10-13T09:48:35;19.30;99.90
45643;DHT22;31358;46.008;11.144;2023-10-13T09:51:02;19.30;99.90
45643;DHT22;31358;46.008;11.144;2023-10-13T09:53:35;19.50;99.90
45643;DHT22;31358;46.008;11.144;2023-10-13T09:58:48;19.40;99.90
45643;DHT22;31358;46.008;11.144;2023-10-13T10:01:19;19.50;99.90
45643;DHT22;31358;46.008;11.144;2023-10-13T10:04:15;19.40;99.90
45643;DHT22;31358;46.008;11.144;2023-10-13T10:06:54;19.50;99.90
45643;DHT22;31358;46.008;11.144;2023-10-13T10:09:26;19.50;99.90
45643;DHT22;31358;46.008;11.144;2023-10-13T10:15:23;19.50;99.90
45643;DHT22;31358;46.008;11.144;2023-10-13T10:17:56;19.80;99.90
45643;DHT22;31358;46.008;11.144;2023-10-13T10:20:32;19.90;99.90
45643;DHT22;31358;46.008;11.144;2023-10-13T10:23:27;19.90;99.90
45643;DHT22;31358;46.008;11.144;2023-10-13T10:25:55;20.20;99.90
45643;DHT22;31358;46.008;11.144;2023-10-13T10:28:38;20.20;99.90
45643;DHT22;31358;46.008;11.144;2023-10-13T10:31:05;20.20;99.90
45643;DHT22;31358;46.008;11.144;2023-10-13T10:33:35;20.10;99.90
45643;DHT22;31358;46.008;11.144;2023-10-13T10:36:01;20.10;99.90
45643;DHT22;31358;46.008;11.144;2023-10-13T10:38:26;20.30;99.90
45643;DHT22;31358;46.008;11.144;2023-10-13T10:41:00;20.30;99.90
45643;DHT22;31358;46.008;11.144;2023-10-13T10:48:39;20.30;99.90
45643;DHT22;31358;46.008;11.144;2023-10-13T10:51:13;20.50;99.90
45643;DHT22;31358;46.008;11.144;2023-10-13T10:53:52;20.60;99.90
45643;DHT22;31358;46.008;11.144;2023-10-13T10:56:22;20.70;99.90
45643;DHT22;31358;46.008;11.144;2023-10-13T10:59:05;20.80;99.90
45643;DHT22;31358;46.008;11.144;2023-10-13T11:01:44;20.90;99.90
45643;DHT22;31358;46.008;11.144;2023-10-13T11:04:14;21.00;99.90
45643;DHT22;31358;46.008;11.144;2023-10-13T11:06:51;21.00;99.90
45643;DHT22;31358;46.008;11.144;2023-10-13T11:09:30;21.20;99.90
45643;DHT22;31358;46.008;11.144;2023-10-13T11:12:18;21.30;99.90
45643;DHT22;31358;46.008;11.144;2023-10-13T11:15:07;21.30;99.90
45643;DHT22;31358;46.008;11.144;2023-10-13T11:17:48;21.40;99.90
45643;DHT22;31358;46.008;11.144;2023-10-13T11:20:18;21.50;99.90
45643;DHT22;31358;46.008;11.144;2023-10-13T11:22:52;21.40;99.90
45643;DHT22;31358;46.008;11.144;2023-10-13T11:25:25;21.20;99.90
45643;DHT22;31358;46.008;11.144;2023-10-13T11:28:12;21.30;99.90
45643;DHT22;31358;46.008;11.144;2023-10-13T11:30:55;21.20;99.90
45643;DHT22;31358;46.008;11.144;2023-10-13T11:33:25;21.30;99.90
45643;DHT22;31358;46.008;11.144;2023-10-13T11:35:55;21.10;99.90
45643;DHT22;31358;46.008;11.144;2023-10-13T11:38:33;21.30;99.90
45643;DHT22;31358;46.008;11.144;2023-10-13T11:41:14;21.30;99.90
45643;DHT22;31358;46.008;11.144;2023-10-13T11:43:51;21.40;99.90
45643;DHT22;31358;46.008;11.144;2023-10-13T11:46:19;21.40;99.90
45643;DHT22;31358;46.008;11.144;2023-10-13T11:49:04;21.50;99.90
45643;DHT22;31358;46.008;11.144;2023-10-13T11:54:17;21.50;99.90
45643;DHT22;31358;46.008;11.144;2023-10-13T11:56:44;21.70;99.90
45643;DHT22;31358;46.008;11.144;2023-10-13T11:59:11;21.80;99.90
45643;DHT22;31358;46.008;11.144;2023-10-13T12:01:46;21.70;99.90
45643;DHT22;31358;46.008;11.144;2023-10-13T12:04:31;21.60;99.90
45643;DHT22;31358;46.008;11.144;2023-10-13T12:07:14;21.60;99.90
45643;DHT22;31358;46.008;11.144;2023-10-13T12:09:51;21.80;99.90
45643;DHT22;31358;46.008;11.144;2023-10-13T12:12:37;22.20;99.90
45643;DHT22;31358;46.008;11.144;2023-10-13T12:15:10;22.30;99.90
45643;DHT22;31358;46.008;11.144;2023-10-13T12:17:51;22.10;99.90
45643;DHT22;31358;46.008;11.144;2023-10-13T12:20:16;22.30;99.90
45643;DHT22;31358;46.008;11.144;2023-10-13T12:22:58;22.60;99.90
45643;DHT22;31358;46.008;11.144;2023-10-13T12:25:36;22.70;99.90
45643;DHT22;31358;46.008;11.144;2023-10-13T12:28:10;22.80;99.90
45643;DHT22;31358;46.008;11.144;2023-10-13T12:30:47;22.90;99.90
45643;DHT22;31358;46.008;11.144;2023-10-13T12:33:19;23.00;99.90
45643;DHT22;31358;46.008;11.144;2023-10-13T12:35:58;23.20;99.90
45643;DHT22;31358;46.008;11.144;2023-10-13T12:38:35;23.40;99.80
45643;DHT22;31358;46.008;11.144;2023-10-13T12:41:20;23.50;99.90
45643;DHT22;31358;46.008;11.144;2023-10-13T12:44:05;23.30;99.60
45643;DHT22;31358;46.008;11.144;2023-10-13T12:46:50;23.20;99.40
45643;DHT22;31358;46.008;11.144;2023-10-13T12:49:36;23.30;99.00
45643;DHT22;31358;46.008;11.144;2023-10-13T12:52:04;23.30;99.40
45643;DHT22;31358;46.008;11.144;2023-10-13T12:54:40;23.30;99.00
45643;DHT22;31358;46.008;11.144;2023-10-13T12:57:07;23.50;98.70
45643;DHT22;31358;46.008;11.144;2023-10-13T12:59:35;23.50;98.60
45643;DHT22;31358;46.008;11.144;2023-10-13T13:02:00;23.50;98.50
45643;DHT22;31358;46.008;11.144;2023-10-13T13:04:32;23.50;98.10
45643;DHT22;31358;46.008;11.144;2023-10-13T13:07:02;23.40;98.20
45643;DHT22;31358;46.008;11.144;2023-10-13T13:09:31;23.40;98.10
45643;DHT22;31358;46.008;11.144;2023-10-13T13:11:57;23.30;98.20
45643;DHT22;31358;46.008;11.144;2023-10-13T13:14:24;23.30;98.40
45643;DHT22;31358;46.008;11.144;2023-10-13T13:16:56;23.30;98.50
45643;DHT22;31358;46.008;11.144;2023-10-13T13:19:34;23.30;98.50
45643;DHT22;31358;46.008;11.144;2023-10-13T13:22:07;23.40;98.20
45643;DHT22;31358;46.008;11.144;2023-10-13T13:24:45;23.40;98.40
45643;DHT22;31358;46.008;11.144;2023-10-13T13:27:14;23.30;98.20
45643;DHT22;31358;46.008;11.144;2023-10-13T13:29:43;23.30;98.70
45643;DHT22;31358;46.008;11.144;2023-10-13T13:32:09;23.40;98.80
45643;DHT22;31358;46.008;11.144;2023-10-13T13:34:45;23.50;98.70
45643;DHT22;31358;46.008;11.144;2023-10-13T13:37:20;23.60;98.80
45643;DHT22;31358;46.008;11.144;2023-10-13T13:39:45;23.70;98.60
45643;DHT22;31358;46.008;11.144;2023-10-13T13:42:11;23.70;98.30
45643;DHT22;31358;46.008;11.144;2023-10-13T13:44:44;23.70;98.20
45643;DHT22;31358;46.008;11.144;2023-10-13T13:47:15;23.70;98.30
45643;DHT22;31358;46.008;11.144;2023-10-13T13:49:42;23.50;98.20
45643;DHT22;31358;46.008;11.144;2023-10-13T13:52:18;23.50;98.10
45643;DHT22;31358;46.008;11.144;2023-10-13T13:54:47;23.40;98.40
45643;DHT22;31358;46.008;11.144;2023-10-13T13:57:13;23.40;98.50
45643;DHT22;31358;46.008;11.144;2023-10-13T13:59:39;23.40;98.70
45643;DHT22;31358;46.008;11.144;2023-10-13T14:02:09;23.40;98.90
45643;DHT22;31358;46.008;11.144;2023-10-13T14:04:48;23.40;99.00
45643;DHT22;31358;46.008;11.144;2023-10-13T14:07:17;23.30;99.20
45643;DHT22;31358;46.008;11.144;2023-10-13T14:09:46;23.20;99.10
45643;DHT22;31358;46.008;11.144;2023-10-13T14:12:17;23.20;99.60
45643;DHT22;31358;46.008;11.144;2023-10-13T14:14:56;23.20;99.10
45643;DHT22;31358;46.008;11.144;2023-10-13T14:17:25;23.20;99.20
45643;DHT22;31358;46.008;11.144;2023-10-13T14:20:01;23.20;99.50
45643;DHT22;31358;46.008;11.144;2023-10-13T14:22:35;23.30;99.50
45643;DHT22;31358;46.008;11.144;2023-10-13T14:25:03;23.20;99.30
45643;DHT22;31358;46.008;11.144;2023-10-13T14:27:35;23.20;99.30
45643;DHT22;31358;46.008;11.144;2023-10-13T14:30:02;23.10;99.00
45643;DHT22;31358;46.008;11.144;2023-10-13T14:32:28;23.20;98.90
45643;DHT22;31358;46.008;11.144;2023-10-13T14:34:54;23.00;99.20
45643;DHT22;31358;46.008;11.144;2023-10-13T14:37:22;22.80;99.20
45643;DHT22;31358;46.008;11.144;2023-10-13T14:39:57;22.70;99.20
45643;DHT22;31358;46.008;11.144;2023-10-13T14:42:25;22.70;99.20
45643;DHT22;31358;46.008;11.144;2023-10-13T14:44:51;22.60;99.70
45643;DHT22;31358;46.008;11.144;2023-10-13T14:47:24;22.50;99.40
45643;DHT22;31358;46.008;11.144;2023-10-13T14:49:57;22.50;99.60
45643;DHT22;31358;46.008;11.144;2023-10-13T14:52:27;22.50;99.60
45643;DHT22;31358;46.008;11.144;2023-10-13T14:55:00;22.50;99.90
45643;DHT22;31358;46.008;11.144;2023-10-13T14:57:25;22.40;99.90
45643;DHT22;31358;46.008;11.144;2023-10-13T14:59:53;22.40;99.50
45643;DHT22;31358;46.008;11.144;2023-10-13T15:02:19;22.30;99.70
45643;DHT22;31358;46.008;11.144;2023-10-13T16:12:45;21.60;99.90
45643;DHT22;31358;46.008;11.144;2023-10-13T16:15:11;21.40;99.90
45643;DHT22;31358;46.008;11.144;2023-10-13T16:17:40;21.40;99.90
45643;DHT22;31358;46.008;11.144;2023-10-13T16:20:09;21.30;99.90
45643;DHT22;31358;46.008;11.144;2023-10-13T16:22:45;21.30;99.90
45643;DHT22;31358;46.008;11.144;2023-10-13T16:25:12;21.30;99.90
45643;DHT22;31358;46.008;11.144;2023-10-13T16:27:42;21.30;99.90
45643;DHT22;31358;46.008;11.144;2023-10-13T16:30:17;21.10;99.90
45643;DHT22;31358;46.008;11.144;2023-10-13T16:32:45;21.10;99.90
45643;DHT22;31358;46.008;11.144;2023-10-13T16:35:15;21.10;99.90
45643;DHT22;31358;46.008;11.144;2023-10-13T16:37:45;21.10;99.90
45643;DHT22;31358;46.008;11.144;2023-10-13T16:40:15;21.10;99.90
45643;DHT22;31358;46.008;11.144;2023-10-13T16:42:41;20.90;99.90
45643;DHT22;31358;46.008;11.144;2023-10-13T16:45:07;20.90;99.90
45643;DHT22;31358;46.008;11.144;2023-10-13T16:47:49;20.70;99.90
45643;DHT22;31358;46.008;11.144;2023-10-13T16:50:16;20.70;99.90
45643;DHT22;31358;46.008;11.144;2023-10-13T17:05:18;20.80;99.90
45643;DHT22;31358;46.008;11.144;2023-10-13T17:07:44;20.90;99.90
45643;DHT22;31358;46.008;11.144;2023-10-13T17:10:13;21.00;99.90
45643;DHT22;31358;46.008;11.144;2023-10-13T17:12:40;21.00;99.90
45643;DHT22;31358;46.008;11.144;2023-10-13T17:15:06;21.00;99.90
45643;DHT22;31358;46.008;11.144;2023-10-13T17:17:40;20.80;99.90
45643;DHT22;31358;46.008;11.144;2023-10-13T17:20:08;20.70;99.90
45643;DHT22;31358;46.008;11.144;2023-10-13T17:22:35;20.60;99.90
45643;DHT22;31358;46.008;11.144;2023-10-13T17:25:02;20.50;99.90
45643;DHT22;31358;46.008;11.144;2023-10-13T17:27:29;20.40;99.90
45643;DHT22;31358;46.008;11.144;2023-10-13T17:29:58;20.20;99.90
45643;DHT22;31358;46.008;11.144;2023-10-13T17:32:24;20.20;99.90
45643;DHT22;31358;46.008;11.144;2023-10-13T17:34:50;20.10;99.90
45643;DHT22;31358;46.008;11.144;2023-10-13T17:37:17;20.00;99.90
45643;DHT22;31358;46.008;11.144;2023-10-13T17:39:42;20.00;99.90
45643;DHT22;31358;46.008;11.144;2023-10-13T17:42:10;20.00;99.90